Terminal Aerodrome Forecast
Issued by NWS Paducah, KY

Home | Current Version | Previous Version | Text Only | Print | Product List | Glossary Off
Versions: 1 2 3 4 5 6 7 8 9 10 11 12 13 14 15 16 17 18 19 20 21 22 23

384
FTUS43 KPAH 210635 AAA
TAFEVV
TAF AMD
KEVV 210635Z 2107/2206 00000KT 4SM BR BKN250
     FM211500 20010G18KT P6SM BKN250
     FM220000 18006KT P6SM SCT040 OVC100=

USA.gov is the U.S. government's official web portal to all federal, state and local government web resources and services.